• Join FlightAware (Why Join?)
  • Login
  • US Flag 
07:17AM EDT


 

Airport Tracker/Info


-or-


 

Live Flight TrackerFlight Track Log ✈ JBU41 ✈ 15-Jul-2013 ✈ KFLL - SKMD / EOH

Flight Track Log - Related Links

Times and Time Zones

All times are in EDT time to prevent confusion due to time zone crossing. See the JBU41 flight status page for this flight to view local times or setup timezone preferences in your user account.

Time Position Orientation Groundspeed Altitude Reporting Facility
EDT Latitude Longitude Course Direction KTS MPH feet Rate Location/Type
05:44PM 26.0770 -80.1300 87° East 164 189 800  Level FlightAware
05:44PM 26.0780 -80.1130 86° East 170 196 1,600 1,980 Climbing FlightAware
05:45PM 26.0800 -80.0910 84° East 194 223 2,200 1,020 Climbing FlightAware
05:45PM 26.0830 -80.0620 83° East 226 260 2,600 1,500 Climbing FlightAware
05:46PM 26.0860 -80.0200 85° East 260 299 3,700 3,300 Climbing FlightAware
05:46PM 26.0820 -79.9790 96° East 248 285 5,700 3,720 Climbing FlightAware
05:46PM 26.0780 -79.9610 104° East 248 285 6,500 2,820 Climbing FlightAware
05:47PM 26.0700 -79.9220 103° East 251 289 7,900 2,880 Climbing FlightAware
05:47PM 26.0640 -79.8870 101° East 248 285 9,400 2,760 Climbing FlightAware
05:48PM 26.0550 -79.8350 101° East 259 298 11,100 1,860 Climbing FlightAware
05:49PM 26.0410 -79.7550 101° East 306 352 12,400 1,200 Climbing FlightAware
05:50PM 26.0300 -79.6940 101° East 342 394 13,000 1,200 Climbing FlightAware
05:50PM 26.0170 -79.6160 100° East 360 414 14,100 1,620 Climbing FlightAware
05:51PM 25.9930 -79.5410 110° East 378 435 15,400 1,680 Climbing FlightAware
05:51PM 25.9700 -79.5210 142° Southeast 392 451 15,800 1,740 Climbing FlightAware
05:52PM 25.8810 -79.5200 179° South 409 471 17,300 2,160 Climbing FlightAware
05:53PM 25.8150 -79.5540 205° Southwest 398 458 19,000 2,160 Climbing FlightAware
05:54PM 25.7400 -79.5920 205° Southwest 404 465 20,300 1,680 Climbing FlightAware
05:54PM 25.6630 -79.6300 204° Southwest 409 471 21,500 1,500 Climbing FlightAware
05:55PM 25.5960 -79.6640 205° Southwest 413 475 22,400 900 Climbing FlightAware
05:56PM 25.5190 -79.7020 204° Southwest 432 497 22,800 420 Climbing FlightAware
05:56PM 25.4390 -79.7410 204° Southwest 445 512 23,000 120 Climbing FlightAware
05:57PM 25.3710 -79.7740 204° Southwest 440 506 23,000 420 Level FlightAware
05:58PM 25.2950 -79.8120 204° Southwest 444 511 23,600 840 Climbing FlightAware
05:58PM 25.2210 -79.8490 204° Southwest 444 511 24,200 960 Climbing FlightAware
05:59PM 25.1480 -79.8700 195° South 454 522 24,900 960 Climbing FlightAware
05:59PM 25.0940 -79.8620 172° South 452 520 25,200 780 Climbing FlightAware
06:00PM 25.0100 -79.8330 163° South 457 526 25,800 780 Climbing FlightAware
06:01PM 24.9280 -79.8040 162° South 470 541 26,300 720 Climbing FlightAware
06:02PM 24.8350 -79.7760 165° South 475 547 26,900 900 Climbing FlightAware
06:02PM 24.7440 -79.7640 173° South 467 537 27,600 780 Climbing FlightAware
06:03PM 24.6440 -79.7500 173° South 473 544 28,100 840 Climbing FlightAware
06:04PM 24.5540 -79.7400 174° South 469 540 28,800 1,080 Climbing FlightAware
06:04PM 24.4790 -79.7400 180° South 470 541 29,500 1,200 Climbing FlightAware
06:05PM 24.3800 -79.7300 175° South 468 539 30,500 840 Climbing FlightAware
06:06PM 24.2730 -79.6910 162° South 458 527 31,000 1,140 Climbing FlightAware
06:07PM 24.1750 -79.6500 159° South 460 529 32,500 1,020 Climbing FlightAware
06:07PM 24.1080 -79.6240 160° South 460 529 32,500 480 Level FlightAware
06:08PM 24.0240 -79.5910 160° South 465 535 33,100 720 Climbing FlightAware
06:09PM 23.9210 -79.5500 160° South 479 551 33,500 240 Climbing FlightAware
06:10PM 23.8320 -79.5150 160° South 479 551 33,500 360 Level FlightAware
06:10PM 23.7140 -79.4680 160° South 481 554 34,200 420 Climbing FlightAware
06:11PM 23.6400 -79.4370 159° South 481 554 34,200 360 Level FlightAware
06:12PM 23.4350 -79.3610 161° South 496 571 35,000 360 Climbing FlightAware
06:13PM 23.3600 -79.3300 159° South 495 570 35,000  Level FlightAware
06:14PM 23.2930 -79.3020 159° South 495 570 35,000  Level FlightAware
06:15PM 23.1550 -79.2440 159° South 495 570 35,000  Level FlightAware
06:16PM 23.0840 -79.2150 159° South 495 570 35,000  Level FlightAware
06:17PM 22.9720 -79.1680 159° South 495 570 35,000  Level FlightAware
06:17PM 22.7880 -79.1020 162° South 496 571 35,000  Level FlightAware
06:18PM 22.7220 -79.0620 151° Southeast 496 571 35,000  Level FlightAware
06:19PM 22.6180 -78.9990 151° Southeast 496 571 35,000  Level FlightAware
06:20PM 22.5340 -78.9490 151° Southeast 496 571 35,000  Level FlightAware
06:21PM 22.4730 -78.9120 151° Southeast 496 571 35,000  Level FlightAware
06:21PM 22.3910 -78.8630 151° Southeast 496 571 35,000  Level FlightAware
06:22PM 22.3300 -78.8270 151° Southeast 496 571 35,000  Level FlightAware
06:23PM 22.2480 -78.7770 151° Southeast 496 571 35,000  Level FlightAware
06:23PM 22.1860 -78.7410 152° Southeast 496 571 35,000  Level FlightAware
06:24PM 22.1030 -78.6910 151° Southeast 496 571 35,000  Level FlightAware
06:25PM 22.0410 -78.6540 151° Southeast 496 571 35,000  Level FlightAware
06:26PM 21.9590 -78.6050 151° Southeast 496 571 35,000  Level FlightAware
06:26PM 21.8980 -78.5680 151° Southeast 496 571 35,000  Level FlightAware
06:27PM 21.8160 -78.5190 151° Southeast 496 571 35,000  Level FlightAware
06:30PM 21.4982 -78.4509 169° South  Level Estimated
06:31PM 21.3752 -78.4246 169° South  Level Estimated
06:32PM 21.2521 -78.3984 169° South  Level Estimated
06:33PM 21.1291 -78.3722 169° South  Level Estimated
06:34PM 21.0061 -78.3460 169° South  Level Estimated
06:35PM 20.8830 -78.3199 169° South  Level Estimated
06:36PM 20.7600 -78.2938 169° South  Level Estimated
06:37PM 20.6369 -78.2678 169° South  Level Estimated
06:38PM 20.5139 -78.2418 169° South  Level Estimated
06:39PM 20.3908 -78.2159 169° South  Level Estimated
06:40PM 20.2678 -78.1900 169° South  Level Estimated
06:41PM 20.1447 -78.1641 169° South  Level Estimated
06:42PM 20.0216 -78.1383 169° South  Level Estimated
06:43PM 19.8986 -78.1125 169° South  Level Estimated
06:44PM 19.7755 -78.0868 169° South  Level Estimated
06:45PM 19.6524 -78.0611 169° South  Level Estimated
06:46PM 19.5293 -78.0354 169° South  Level Estimated
06:47PM 19.4062 -78.0098 169° South  Level Estimated
06:48PM 19.2831 -77.9842 169° South  Level Estimated
06:49PM 19.1600 -77.9587 169° South  Level Estimated
06:50PM 19.0369 -77.9332 169° South  Level Estimated
06:51PM 18.9138 -77.9077 169° South  Level Estimated
06:52PM 18.7907 -77.8823 169° South  Level Estimated
06:53PM 18.6676 -77.8569 169° South  Level Estimated
06:54PM 18.5445 -77.8315 169° South  Level Estimated
06:55PM 18.4214 -77.8062 169° South  Level Estimated
06:56PM 18.2983 -77.7809 169° South  Level Estimated
06:57PM 18.1751 -77.7557 169° South  Level Estimated
06:58PM 18.0520 -77.7305 169° South  Level Estimated
06:59PM 17.9289 -77.7053 169° South  Level Estimated
07:00PM 17.8057 -77.6801 169° South  Level Estimated
07:01PM 17.6826 -77.6550 169° South  Level Estimated
07:02PM 17.5595 -77.6300 169° South  Level Estimated
07:03PM 17.4363 -77.6049 169° South  Level Estimated
07:04PM 17.3132 -77.5799 169° South  Level Estimated
07:05PM 17.1900 -77.5549 169° South  Level Estimated
07:06PM 17.0669 -77.5300 169° South  Level Estimated
07:07PM 16.9437 -77.5051 169° South  Level Estimated
07:08PM 16.8206 -77.4802 169° South  Level Estimated
07:09PM 16.6974 -77.4554 169° South  Level Estimated
07:10PM 16.5743 -77.4306 169° South  Level Estimated
07:11PM 16.4511 -77.4058 169° South  Level Estimated
07:12PM 16.3279 -77.3810 169° South  Level Estimated
07:13PM 16.2048 -77.3563 169° South  Level Estimated
07:14PM 16.0816 -77.3316 169° South  Level Estimated
07:15PM 15.9584 -77.3070 169° South  Level Estimated
07:16PM 15.8352 -77.2824 169° South  Level Estimated
07:17PM 15.7120 -77.2578 169° South  Level Estimated
07:18PM 15.5889 -77.2332 169° South  Level Estimated
07:19PM 15.4657 -77.2087 169° South  Level Estimated
07:20PM 15.3425 -77.1842 169° South  Level Estimated
07:21PM 15.2193 -77.1597 169° South  Level Estimated
07:22PM 15.0961 -77.1353 169° South  Level Estimated
07:23PM 14.9729 -77.1108 169° South  Level Estimated
07:24PM 14.8497 -77.0865 169° South  Level Estimated
07:25PM 14.7265 -77.0621 169° South  Level Estimated
07:26PM 14.6033 -77.0378 169° South  Level Estimated
07:27PM 14.4801 -77.0135 169° South  Level Estimated
07:28PM 14.3568 -76.9892 169° South  Level Estimated
07:29PM 14.2336 -76.9649 169° South  Level Estimated
07:30PM 14.1104 -76.9407 169° South  Level Estimated
07:31PM 13.9872 -76.9165 169° South  Level Estimated
07:32PM 13.8640 -76.8923 169° South  Level Estimated
07:33PM 13.7408 -76.8682 169° South  Level Estimated
07:34PM 13.6175 -76.8440 169° South  Level Estimated
07:35PM 13.4943 -76.8199 169° South  Level Estimated
07:36PM 13.3711 -76.7959 169° South  Level Estimated
07:37PM 13.2478 -76.7718 169° South  Level Estimated
07:38PM 13.1246 -76.7478 169° South  Level Estimated
07:39PM 13.0014 -76.7238 169° South  Level Estimated
07:40PM 12.8781 -76.6998 169° South  Level Estimated
07:41PM 12.7549 -76.6759 169° South  Level Estimated
07:42PM 12.6316 -76.6519 169° South  Level Estimated
07:43PM 12.5084 -76.6280 169° South  Level Estimated
07:44PM 12.3851 -76.6041 169° South  Level Estimated
07:45PM 12.2619 -76.5803 169° South  Level Estimated
07:46PM 12.1386 -76.5564 169° South  Level Estimated
07:47PM 12.0154 -76.5326 169° South  Level Estimated
07:47PM 11.2670 -76.1280 169° South 471 542 37,000  Level FlightAware
07:47PM 11.1790 -76.1100 169° South 472 543 37,000  Level FlightAware
07:48PM 11.0970 -76.0940 169° South 470 541 37,000  Level FlightAware
07:49PM 10.9970 -76.0740 169° South 464 534 37,000 -120 Level FlightAware
07:49PM 10.9240 -76.0590 169° South 462 532 36,900 -120 Descending FlightAware
07:50PM 10.8290 -76.0410 169° South 460 529 36,900 60 Level FlightAware
07:51PM 10.7460 -76.0240 169° South 459 528 37,000 60 Climbing FlightAware
07:51PM 10.6740 -76.0100 169° South 458 527 37,000  Level FlightAware
07:52PM 10.5890 -75.9930 169° South 456 525 37,000  Level FlightAware
07:53PM 10.5060 -75.9770 169° South 456 525 37,000  Level FlightAware
07:53PM 10.4120 -75.9580 169° South 459 528 37,000  Level FlightAware
07:54PM 10.3310 -75.9420 169° South 459 528 37,000  Level FlightAware
07:55PM 10.2340 -75.9230 169° South 458 527 37,000  Level FlightAware
07:55PM 10.1520 -75.9070 169° South 456 525 37,000  Level FlightAware
07:56PM 10.0600 -75.8890 169° South 457 526 37,000  Level FlightAware
07:57PM 9.9770 -75.8720 169° South 455 524 37,000  Level FlightAware
07:58PM 9.8820 -75.8540 169° South 454 522 37,000  Level FlightAware
07:58PM 9.8020 -75.8380 169° South 456 525 37,000  Level FlightAware
07:59PM 9.7040 -75.8190 169° South 458 527 37,000  Level FlightAware
08:00PM 9.6140 -75.8010 169° South 460 529 37,000  Level FlightAware
08:01PM 9.4860 -75.7760 169° South 464 534 37,000  Level FlightAware
08:01PM 9.3930 -75.7580 169° South 464 534 37,000  Level FlightAware
08:02PM 9.3220 -75.7440 169° South 461 531 37,000  Level FlightAware
08:03PM 9.2360 -75.7270 169° South 462 532 37,000  Level FlightAware
08:03PM 9.1480 -75.7100 169° South 461 531 37,000  Level FlightAware
08:04PM 9.0620 -75.6930 169° South 461 531 37,000  Level FlightAware
08:05PM 8.9770 -75.6760 169° South 461 531 37,000  Level FlightAware
08:06PM 8.8880 -75.6590 169° South 461 531 37,000  Level FlightAware
08:06PM 8.8240 -75.6460 169° South 461 531 37,000  Level FlightAware
08:07PM 8.6970 -75.6210 169° South 459 528 37,000  Level FlightAware
08:08PM 8.5720 -75.5970 169° South 458 527 37,000  Level FlightAware
08:09PM 8.4870 -75.5800 169° South 459 528 37,000  Level FlightAware
08:09PM 8.4220 -75.5680 170° South 459 528 37,000  Level FlightAware
08:10PM 8.3090 -75.5460 169° South 460 529 37,000  Level FlightAware
08:11PM 8.1870 -75.5220 169° South 460 529 37,000  Level FlightAware
08:12PM 8.0760 -75.5000 169° South 460 529 37,000  Level FlightAware
08:13PM 7.9340 -75.4730 169° South 462 532 37,000  Level FlightAware
08:14PM 7.8580 -75.4580 169° South 463 533 37,000  Level FlightAware
08:14PM 7.7610 -75.4500 175° South 463 533 37,000  Level FlightAware
08:15PM 7.6710 -75.4430 176° South 463 533 37,000  Level FlightAware
08:16PM 7.5560 -75.4330 175° South 463 533 37,000  Level FlightAware
08:17PM 7.4620 -75.4260 176° South 464 534 37,000  Level FlightAware
08:17PM 7.3670 -75.4180 175° South 465 535 37,000 -780 Level FlightAware
08:18PM 7.2800 -75.4110 175° South 466 536 35,900 -2,100 Descending FlightAware
08:19PM 7.2020 -75.4050 176° South 467 537 34,200 -2,760 Descending FlightAware
08:20PM 7.0960 -75.3970 176° South 462 532 32,000 -2,700 Descending FlightAware
08:20PM 7.0010 -75.3890 175° South 457 526 30,200 -2,280 Descending FlightAware
08:21PM 6.9160 -75.3820 175° South 449 517 28,800 -2,100 Descending FlightAware
08:22PM 6.8310 -75.3750 175° South 441 507 27,300 -2,160 Descending FlightAware
08:22PM 6.7580 -75.3690 175° South 435 501 26,000 -2,280 Descending FlightAware
08:23PM 6.6830 -75.3640 176° South 427 491 24,700 -2,100 Descending FlightAware
08:24PM 6.6820 -75.3640 180° South 426 490 23,100 -1,020 Descending FlightAware
08:25PM 6.5990 -75.3580 176° South 426 490 23,100  Level FlightAware
08:25PM 6.5390 -75.3530 175° South 426 490 23,100  Level FlightAware
08:26PM 6.4790 -75.3490 176° South 426 490 23,100  Level FlightAware
08:26PM 6.4380 -75.3460 176° South 426 490 23,100  Level FlightAware
08:27PM 6.3580 -75.3410 176° South 426 490 23,100  Level FlightAware
08:28PM 6.2980 -75.3360 175° South 426 490 23,100  Level FlightAware
08:30PM 6.1645 -75.4231 259° West  Level Estimated
08:31PM 6.1645 -75.4231 259° West  Level Estimated
08:32PM 6.1645 -75.4231 259° West  Level Estimated
08:33PM 6.1645 -75.4231 259° West  Level Estimated
08:34PM 6.1645 -75.4231 259° West  Level Estimated
08:35PM 6.1645 -75.4231 259° West  Level Estimated
08:36PM 6.1645 -75.4231 259° West  Level Estimated
08:37PM 6.1645 -75.4231 259° West  Level Estimated
08:38PM 6.1645 -75.4231 259° West  Level Estimated
08:39PM 6.1645 -75.4231 259° West  Level Estimated
08:40PM 6.1645 -75.4231 259° West  Level Estimated
08:41PM 6.1645 -75.4231 259° West  Level Estimated
08:42PM 6.1645 -75.4231 259° West  Level Estimated
08:43PM 6.1645 -75.4231 259° West  Level Estimated
08:44PM 6.1645 -75.4231 259° West  Level Estimated
08:45PM 6.1645 -75.4231 259° West  Level Estimated
08:46PM 6.1645 -75.4231 259° West  Level Estimated
08:47PM 6.1645 -75.4231 259° West  Level Estimated
08:48PM 6.1645 -75.4231 259° West  Level Estimated
08:49PM 6.1645 -75.4231 259° West  Level Estimated
08:50PM 6.1645 -75.4231 259° West  Level Estimated
08:51PM 6.1645 -75.4231 259° West  Level Estimated
08:52PM 6.1645 -75.4231 259° West  Level Estimated
08:53PM 6.1645 -75.4231 259° West  Level Estimated
08:54PM 6.1645 -75.4231 259° West  Level Estimated